Time;durP1;ratioP1;P1;durP2;ratioP2;P2;SDS_P1;SDS_P2;PMS_P1;PMS_P2;Temp;Humidity;BMP_temperature;BMP_pressure;BME280_temperature;BME280_humidity;BME280_pressure;Samples;Min_cycle;Max_cycle;Signal;HPM_P1;HPM_P2
2024/01/03 00:01:00;;;;;;;;;3.67;2.33;;;;;-144.62;100.00;60556.56;5042282;28;45191;-77
2024/01/03 00:03:27;;;;;;;;;6.67;3.00;;;;;-144.62;100.00;60556.56;5041370;28;45324;-77
2024/01/03 00:05:52;;;;;;;;;2.00;1.00;;;;;-144.62;100.00;60556.56;5041451;28;45269;-77
2024/01/03 00:08:26;;;;;;;;;3.33;2.00;;;;;-144.62;100.00;60556.56;5036986;27;45253;-77
2024/01/03 00:10:54;;;;;;;;;7.67;4.00;;;;;-144.62;100.00;60556.56;5036047;28;45541;-77
2024/01/03 00:13:34;;;;;;;;;5.33;2.33;;;;;-144.62;100.00;60556.56;5039008;28;45670;-77
2024/01/03 00:15:59;;;;;;;;;8.67;4.33;;;;;-144.62;100.00;60556.56;5041317;28;45309;-76
2024/01/03 00:18:50;;;;;;;;;4.67;3.00;;;;;-144.62;100.00;60556.56;5041613;28;45529;-77
2024/01/03 00:21:25;;;;;;;;;4.33;1.67;;;;;-144.62;100.00;60556.56;5041937;28;45402;-77
2024/01/03 00:23:55;;;;;;;;;2.33;1.67;;;;;-144.62;100.00;60556.56;5039890;28;47457;-77
2024/01/03 00:26:22;;;;;;;;;3.00;2.00;;;;;-144.62;100.00;60556.56;5040941;28;45175;-77
2024/01/03 00:28:47;;;;;;;;;4.33;2.67;;;;;-144.62;100.00;60556.56;5040102;28;45347;-77
2024/01/03 00:31:24;;;;;;;;;3.33;3.00;;;;;-144.62;100.00;60556.56;5041741;28;45414;-77
2024/01/03 00:33:49;;;;;;;;;3.00;3.00;;;;;-144.62;100.00;60556.56;5041020;28;45525;-77
2024/01/03 00:36:15;;;;;;;;;6.00;2.00;;;;;-144.62;100.00;60556.56;5040094;28;45499;-77
2024/01/03 00:38:42;;;;;;;;;4.33;3.00;;;;;-144.62;100.00;60556.56;5041351;28;45410;-77
2024/01/03 00:41:12;;;;;;;;;5.67;4.00;;;;;-144.62;100.00;60556.56;5041382;28;45215;-75
2024/01/03 00:43:38;;;;;;;;;1.67;1.67;;;;;-144.62;100.00;60556.56;5040222;28;45597;-77
2024/01/03 00:46:04;;;;;;;;;9.00;3.00;;;;;-144.62;100.00;60556.56;5039557;28;45757;-76
2024/01/03 00:48:30;;;;;;;;;8.67;6.67;;;;;-144.62;100.00;60556.56;5041076;28;45339;-76
2024/01/03 00:50:56;;;;;;;;;5.00;2.00;;;;;-144.62;100.00;60556.56;5041516;28;45333;-76
2024/01/03 00:53:21;;;;;;;;;5.00;4.00;;;;;-144.62;100.00;60556.56;5039332;28;46962;-76
2024/01/03 00:55:47;;;;;;;;;7.00;4.00;;;;;-144.62;100.00;60556.56;5039754;28;45276;-76
2024/01/03 00:58:12;;;;;;;;;3.67;2.33;;;;;-144.62;100.00;60556.56;5040865;28;45569;-76
2024/01/03 01:00:38;;;;;;;;;4.33;2.67;;;;;-144.62;100.00;60556.56;5041530;28;45563;-76
2024/01/03 01:03:05;;;;;;;;;6.00;3.00;;;;;-144.62;100.00;60556.56;5039470;28;47182;-76
2024/01/03 01:05:30;;;;;;;;;3.00;3.00;;;;;-144.62;100.00;60556.56;5040799;28;45522;-76
2024/01/03 01:07:56;;;;;;;;;7.00;2.33;;;;;-144.62;100.00;60556.56;5039792;27;45242;-76
2024/01/03 01:10:21;;;;;;;;;6.67;4.00;;;;;-144.62;100.00;60556.56;5040161;28;45605;-76
2024/01/03 01:12:47;;;;;;;;;5.67;2.33;;;;;-144.62;100.00;60556.56;5040394;28;45520;-76
2024/01/03 01:15:12;;;;;;;;;3.00;2.00;;;;;-144.62;100.00;60556.56;5040542;28;50886;-76
2024/01/03 01:17:37;;;;;;;;;5.67;3.00;;;;;-144.62;100.00;60556.56;5039481;28;45319;-76
2024/01/03 01:20:03;;;;;;;;;3.00;1.00;;;;;-144.62;100.00;60556.56;5039867;28;45615;-76
2024/01/03 01:22:29;;;;;;;;;5.33;3.33;;;;;-144.62;100.00;60556.56;5040679;28;45568;-77
2024/01/03 01:24:54;;;;;;;;;0.67;0.67;;;;;-144.62;100.00;60556.56;5040630;28;45318;-77
2024/01/03 01:27:19;;;;;;;;;3.33;1.33;;;;;-144.62;100.00;60556.56;5038243;27;46681;-77
2024/01/03 01:29:45;;;;;;;;;5.67;3.00;;;;;-144.62;100.00;60556.56;5041109;28;45538;-77
2024/01/03 01:32:10;;;;;;;;;7.00;2.00;;;;;-144.62;100.00;60556.56;5040324;28;45401;-77
2024/01/03 01:34:35;;;;;;;;;3.33;2.00;;;;;-144.62;100.00;60556.56;5039160;28;53938;-77
2024/01/03 01:37:00;;;;;;;;;4.00;2.00;;;;;-144.62;100.00;60556.56;5040082;28;52486;-77
2024/01/03 01:39:26;;;;;;;;;5.00;3.00;;;;;-144.62;100.00;60556.56;5039802;28;45484;-77
2024/01/03 01:41:51;;;;;;;;;2.33;1.33;;;;;-144.62;100.00;60556.56;5040024;28;47221;-77
2024/01/03 01:44:16;;;;;;;;;5.00;4.00;;;;;-144.62;100.00;60556.56;5040324;28;45325;-76
2024/01/03 01:46:43;;;;;;;;;5.00;3.33;;;;;-144.62;100.00;60556.56;5040596;28;45289;-76
2024/01/03 01:49:09;;;;;;;;;3.67;2.33;;;;;-144.62;100.00;60556.56;5040937;28;45541;-76
2024/01/03 01:51:35;;;;;;;;;4.00;3.67;;;;;-144.62;100.00;60556.56;5039756;28;45253;-77
2024/01/03 01:54:01;;;;;;;;;7.00;2.00;;;;;-144.62;100.00;60556.56;5040470;28;45316;-77
2024/01/03 01:56:27;;;;;;;;;2.33;2.00;;;;;-144.62;100.00;60556.56;5040018;28;45454;-77
2024/01/03 01:58:53;;;;;;;;;6.00;3.67;;;;;-144.62;100.00;60556.56;5039426;28;45440;-77
2024/01/03 02:01:21;;;;;;;;;3.00;3.00;;;;;-144.62;100.00;60556.56;5038581;28;47142;-77
2024/01/03 02:03:48;;;;;;;;;6.67;3.67;;;;;-144.62;100.00;60556.56;5040419;28;45443;-77
2024/01/03 02:06:15;;;;;;;;;2.33;2.33;;;;;-144.62;100.00;60556.56;5040004;28;45221;-77
2024/01/03 02:08:41;;;;;;;;;7.00;4.33;;;;;-144.62;100.00;60556.56;5039328;27;45474;-77
2024/01/03 02:11:06;;;;;;;;;5.00;5.00;;;;;-144.62;100.00;60556.56;5039374;28;45374;-77
2024/01/03 02:13:32;;;;;;;;;8.00;3.00;;;;;-144.62;100.00;60556.56;5040102;28;45359;-76
2024/01/03 02:15:57;;;;;;;;;3.67;2.00;;;;;-144.62;100.00;60556.56;5039956;28;45400;-77
2024/01/03 02:18:24;;;;;;;;;5.33;2.67;;;;;-144.62;100.00;60556.56;5040482;28;45290;-77
2024/01/03 02:20:52;;;;;;;;;5.00;2.67;;;;;-144.62;100.00;60556.56;5039621;28;45442;-77
2024/01/03 02:23:17;;;;;;;;;2.00;0.00;;;;;-144.62;100.00;60556.56;5039685;28;45562;-77
2024/01/03 02:25:42;;;;;;;;;4.00;4.00;;;;;-144.62;100.00;60556.56;5031115;28;45418;-77
2024/01/03 02:28:10;;;;;;;;;4.00;2.00;;;;;-144.62;100.00;60556.56;5040080;28;45236;-77
2024/01/03 02:30:35;;;;;;;;;5.67;2.00;;;;;-144.62;100.00;60556.56;5034408;28;47366;-77
2024/01/03 02:33:01;;;;;;;;;4.00;2.00;;;;;-144.62;100.00;60556.56;5038174;28;45236;-77
2024/01/03 02:35:26;;;;;;;;;2.67;2.67;;;;;-144.62;100.00;60556.56;5039640;28;45695;-77
2024/01/03 02:37:52;;;;;;;;;10.67;4.33;;;;;-144.62;100.00;60556.56;5038924;28;45506;-76
2024/01/03 02:40:17;;;;;;;;;10.67;4.33;;;;;-144.62;100.00;60556.56;5039468;28;45450;-77
2024/01/03 02:42:42;;;;;;;;;5.00;2.00;;;;;-144.62;100.00;60556.56;5039371;28;45410;-77
2024/01/03 02:45:08;;;;;;;;;6.33;2.67;;;;;-144.62;100.00;60556.56;5039583;28;45437;-77
2024/01/03 02:47:33;;;;;;;;;5.67;5.00;;;;;-144.62;100.00;60556.56;5038721;28;45461;-77
2024/01/03 02:49:58;;;;;;;;;5.00;2.00;;;;;-144.62;100.00;60556.56;5038109;28;45878;-77
2024/01/03 02:52:28;;;;;;;;;6.67;4.33;;;;;-144.62;100.00;60556.56;5038007;28;45635;-77
2024/01/03 02:54:54;;;;;;;;;1.67;1.67;;;;;-144.62;100.00;60556.56;5038031;28;45354;-77
2024/01/03 02:57:19;;;;;;;;;8.00;4.67;;;;;-144.62;100.00;60556.56;5039678;28;45635;-77
2024/01/03 02:59:45;;;;;;;;;6.00;5.00;;;;;-144.62;100.00;60556.56;5039227;28;46820;-77
2024/01/03 03:02:10;;;;;;;;;5.33;2.33;;;;;-144.62;100.00;60556.56;5037797;28;52509;-77
2024/01/03 03:04:35;;;;;;;;;8.33;5.33;;;;;-144.62;100.00;60556.56;5037689;28;45230;-77
2024/01/03 03:07:01;;;;;;;;;2.67;2.00;;;;;-144.62;100.00;60556.56;5040035;28;45584;-76
2024/01/03 03:09:26;;;;;;;;;6.33;2.67;;;;;-144.62;100.00;60556.56;5042218;27;45658;-76
2024/01/03 03:11:51;;;;;;;;;10.67;2.00;;;;;-144.62;100.00;60556.56;5040621;28;52538;-76
2024/01/03 03:14:17;;;;;;;;;4.00;2.00;;;;;-144.62;100.00;60556.56;5041159;28;45400;-76
2024/01/03 03:16:42;;;;;;;;;8.33;3.33;;;;;-144.62;100.00;60556.56;5041457;28;45457;-76
2024/01/03 03:19:07;;;;;;;;;4.00;0.67;;;;;-144.62;100.00;60556.56;5040204;28;58374;-76
2024/01/03 03:21:33;;;;;;;;;4.00;3.67;;;;;-144.62;100.00;60556.56;5042260;28;45291;-76
2024/01/03 03:23:58;;;;;;;;;5.00;2.33;;;;;-144.62;100.00;60556.56;5057680;28;45370;-76
2024/01/03 03:26:23;;;;;;;;;4.67;3.00;;;;;-144.62;100.00;60556.56;5042067;28;45523;-77
2024/01/03 03:28:50;;;;;;;;;6.67;3.00;;;;;-144.62;100.00;60556.56;5042046;28;45415;-76
2024/01/03 03:31:15;;;;;;;;;4.00;3.00;;;;;-144.62;100.00;60556.56;5035619;28;45336;-77
2024/01/03 03:33:40;;;;;;;;;5.33;3.00;;;;;-144.62;100.00;60556.56;5042121;28;45452;-76
2024/01/03 03:36:12;;;;;;;;;2.33;2.00;;;;;-144.62;100.00;60556.56;5042222;28;45516;-76
2024/01/03 03:38:38;;;;;;;;;6.00;3.00;;;;;-144.62;100.00;60556.56;5040532;28;48272;-76
2024/01/03 03:41:11;;;;;;;;;6.00;4.00;;;;;-144.62;100.00;60556.56;5041616;28;45434;-76
2024/01/03 03:43:37;;;;;;;;;5.00;3.00;;;;;-144.62;100.00;60556.56;5040686;28;45423;-76
2024/01/03 03:46:03;;;;;;;;;1.33;1.33;;;;;-144.62;100.00;60556.56;5042243;28;45432;-77
2024/01/03 03:48:28;;;;;;;;;2.67;1.00;;;;;-144.62;100.00;60556.56;5028319;28;45338;-76
2024/01/03 03:50:53;;;;;;;;;5.00;2.00;;;;;-144.62;100.00;60556.56;5041196;28;53936;-77
2024/01/03 03:53:19;;;;;;;;;2.67;1.00;;;;;-144.62;100.00;60556.56;5041758;28;45428;-76
2024/01/03 03:55:44;;;;;;;;;2.33;1.33;;;;;-144.62;100.00;60556.56;5040598;28;45327;-77
2024/01/03 03:58:09;;;;;;;;;2.00;2.00;;;;;-144.62;100.00;60556.56;5041546;28;46443;-76
2024/01/03 04:00:35;;;;;;;;;1.00;1.00;;;;;-144.62;100.00;60556.56;5041768;28;45350;-76
2024/01/03 04:03:00;;;;;;;;;2.00;1.33;;;;;-144.62;100.00;60556.56;5040284;28;45343;-76
2024/01/03 04:05:25;;;;;;;;;1.00;1.00;;;;;-144.62;100.00;60556.56;5042055;28;45641;-76
2024/01/03 04:07:51;;;;;;;;;0.00;0.00;;;;;-144.62;100.00;60556.56;5039756;27;58558;-77
2024/01/03 04:10:16;;;;;;;;;2.00;1.00;;;;;-144.62;100.00;60556.56;5041611;28;46688;-77
2024/01/03 04:12:41;;;;;;;;;1.33;0.00;;;;;-144.62;100.00;60556.56;5052658;28;45793;-77
2024/01/03 04:15:07;;;;;;;;;3.00;0.00;;;;;-144.62;100.00;60556.56;5021657;28;45733;-77
2024/01/03 04:17:34;;;;;;;;;0.33;0.00;;;;;-144.62;100.00;60556.56;5037058;28;45319;-77
2024/01/03 04:20:00;;;;;;;;;1.00;0.00;;;;;-144.62;100.00;60556.56;5038967;28;45225;-77
2024/01/03 04:22:26;;;;;;;;;3.33;1.00;;;;;-144.62;100.00;60556.56;5040077;28;45354;-77
2024/01/03 04:24:52;;;;;;;;;2.33;0.00;;;;;-144.62;100.00;60556.56;5057381;28;45382;-77
2024/01/03 04:27:17;;;;;;;;;1.00;1.00;;;;;-144.62;100.00;60556.56;5041066;28;45401;-77
2024/01/03 04:29:42;;;;;;;;;0.00;0.00;;;;;-144.62;100.00;60556.56;5041305;28;45294;-77
2024/01/03 04:32:08;;;;;;;;;2.00;0.00;;;;;-144.62;100.00;60556.56;5023760;28;45451;-77
2024/01/03 04:34:33;;;;;;;;;0.00;0.00;;;;;-144.62;100.00;60556.56;5030028;28;45340;-77
2024/01/03 04:36:58;;;;;;;;;1.00;1.00;;;;;-144.62;100.00;60556.56;5038699;28;47792;-77
2024/01/03 04:39:24;;;;;;;;;0.33;0.33;;;;;-144.62;100.00;60556.56;5041241;28;45352;-77
2024/01/03 04:41:49;;;;;;;;;1.00;1.00;;;;;-144.62;100.00;60556.56;5040753;28;45241;-77
2024/01/03 04:44:15;;;;;;;;;0.67;0.67;;;;;-144.62;100.00;60556.56;5041762;28;45539;-77
2024/01/03 04:46:40;;;;;;;;;1.00;1.00;;;;;-144.62;100.00;60556.56;5041016;28;45353;-77
2024/01/03 04:49:06;;;;;;;;;3.00;2.00;;;;;-144.62;100.00;60556.56;5039604;28;45432;-77
2024/01/03 04:51:31;;;;;;;;;2.33;1.00;;;;;-144.62;100.00;60556.56;5040831;28;45659;-77
2024/01/03 04:53:56;;;;;;;;;3.67;2.00;;;;;-144.62;100.00;60556.56;5040269;28;45419;-77
2024/01/03 04:56:24;;;;;;;;;2.67;1.00;;;;;-144.62;100.00;60556.56;5039090;28;52471;-76
2024/01/03 04:58:50;;;;;;;;;2.33;2.00;;;;;-144.62;100.00;60556.56;5041132;28;45248;-76
2024/01/03 05:01:15;;;;;;;;;2.00;0.00;;;;;-144.62;100.00;60556.56;5040430;28;45358;-76
2024/01/03 05:03:41;;;;;;;;;3.67;1.67;;;;;-144.62;100.00;60556.56;5041595;28;45481;-76
2024/01/03 05:06:07;;;;;;;;;2.33;2.00;;;;;-144.62;100.00;60556.56;5039119;28;45970;-76
2024/01/03 05:08:33;;;;;;;;;1.33;1.00;;;;;-144.62;100.00;60556.56;5040825;27;45366;-76
2024/01/03 05:10:58;;;;;;;;;2.33;1.67;;;;;-144.62;100.00;60556.56;5039219;28;45568;-77
2024/01/03 05:13:25;;;;;;;;;3.33;1.00;;;;;-144.62;100.00;60556.56;5041234;28;45237;-76
2024/01/03 05:15:51;;;;;;;;;5.00;1.33;;;;;-144.62;100.00;60556.56;5040375;28;45500;-76
2024/01/03 05:18:16;;;;;;;;;1.33;1.00;;;;;-144.62;100.00;60556.56;5040767;28;45360;-77
2024/01/03 05:20:41;;;;;;;;;2.67;1.00;;;;;-144.62;100.00;60556.56;5039351;28;45557;-76
2024/01/03 05:23:07;;;;;;;;;4.00;1.00;;;;;-144.62;100.00;60556.56;5040934;28;45233;-76
2024/01/03 05:25:32;;;;;;;;;2.67;2.00;;;;;-144.62;100.00;60556.56;5040239;28;46542;-76
2024/01/03 05:27:57;;;;;;;;;2.00;1.00;;;;;-144.62;100.00;60556.56;5038728;28;53914;-76
2024/01/03 05:30:23;;;;;;;;;3.33;1.00;;;;;-144.62;100.00;60556.56;5040935;28;45410;-76
2024/01/03 05:32:48;;;;;;;;;1.00;1.00;;;;;-144.62;100.00;60556.56;5041356;28;45206;-76
2024/01/03 05:35:13;;;;;;;;;1.00;1.00;;;;;-144.62;100.00;60556.56;5055419;28;46954;-76
2024/01/03 05:37:38;;;;;;;;;3.67;2.33;;;;;-144.62;100.00;60556.56;5038840;28;45213;-76
2024/01/03 05:40:04;;;;;;;;;2.67;1.00;;;;;-144.62;100.00;60556.56;5038727;28;46874;-76
2024/01/03 05:42:30;;;;;;;;;6.33;2.33;;;;;-144.62;100.00;60556.56;5039185;28;45298;-76
2024/01/03 05:44:55;;;;;;;;;2.67;2.33;;;;;-144.62;100.00;60556.56;5039980;28;45815;-76
2024/01/03 05:47:20;;;;;;;;;2.00;1.33;;;;;-144.62;100.00;60556.56;5039955;28;52412;-76
2024/01/03 05:49:46;;;;;;;;;4.33;0.00;;;;;-144.62;100.00;60556.56;5040589;28;45300;-76
2024/01/03 05:52:11;;;;;;;;;2.00;1.00;;;;;-144.62;100.00;60556.56;5038699;28;45344;-76
2024/01/03 05:54:36;;;;;;;;;1.67;1.00;;;;;-144.62;100.00;60556.56;5038788;28;46954;-76
2024/01/03 05:57:02;;;;;;;;;2.00;0.67;;;;;-144.62;100.00;60556.56;5038241;28;45412;-76
2024/01/03 05:59:28;;;;;;;;;1.00;1.00;;;;;-144.62;100.00;60556.56;5038825;28;45314;-76
2024/01/03 06:01:54;;;;;;;;;0.00;0.00;;;;;-144.62;100.00;60556.56;5040355;28;45475;-76
2024/01/03 06:04:19;;;;;;;;;2.00;1.00;;;;;-144.62;100.00;60556.56;5039750;28;46451;-76
2024/01/03 06:06:44;;;;;;;;;0.00;0.00;;;;;-144.62;100.00;60556.56;5039762;28;45390;-76
2024/01/03 06:09:10;;;;;;;;;1.00;1.00;;;;;-144.62;100.00;60556.56;5040218;27;45488;-76
2024/01/03 06:11:36;;;;;;;;;1.00;1.00;;;;;-144.62;100.00;60556.56;5055302;28;45301;-76
2024/01/03 06:14:01;;;;;;;;;2.00;1.00;;;;;-144.62;100.00;60556.56;5039526;28;45446;-77
2024/01/03 06:16:26;;;;;;;;;3.00;1.00;;;;;-144.62;100.00;60556.56;5038445;28;45333;-77
2024/01/03 06:18:52;;;;;;;;;0.67;0.67;;;;;-144.62;100.00;60556.56;5039625;28;45329;-77
2024/01/03 06:21:18;;;;;;;;;1.33;1.33;;;;;-144.62;100.00;60556.56;5037573;28;45296;-77
2024/01/03 06:23:43;;;;;;;;;4.00;2.00;;;;;-144.62;100.00;60556.56;5037322;28;47986;-77
2024/01/03 06:26:08;;;;;;;;;2.00;2.00;;;;;-144.62;100.00;60556.56;5038431;28;45234;-77
2024/01/03 06:28:33;;;;;;;;;5.67;0.33;;;;;-144.62;100.00;60556.56;5037830;28;45355;-77
2024/01/03 06:31:02;;;;;;;;;1.67;1.00;;;;;-144.62;100.00;60556.56;5039305;28;45560;-77
2024/01/03 06:33:27;;;;;;;;;4.67;3.67;;;;;-144.62;100.00;60556.56;5038777;28;45454;-77
2024/01/03 06:35:52;;;;;;;;;1.00;1.00;;;;;-144.62;100.00;60556.56;5037010;28;45398;-77
2024/01/03 06:38:17;;;;;;;;;3.33;2.00;;;;;-144.62;100.00;60556.56;5037267;28;45363;-77
2024/01/03 06:40:43;;;;;;;;;4.00;2.00;;;;;-144.62;100.00;60556.56;5038253;28;45425;-77
2024/01/03 06:43:08;;;;;;;;;3.00;1.67;;;;;-144.62;100.00;60556.56;5039819;28;45849;-77
2024/01/03 06:45:34;;;;;;;;;3.00;1.33;;;;;-144.62;100.00;60556.56;5040883;28;45231;-77
2024/01/03 06:48:01;;;;;;;;;3.00;1.33;;;;;-144.62;100.00;60556.56;5041638;28;45480;-77
2024/01/03 06:50:27;;;;;;;;;5.00;2.00;;;;;-144.62;100.00;60556.56;5042080;28;45406;-77
2024/01/03 06:52:52;;;;;;;;;8.00;4.00;;;;;-144.62;100.00;60556.56;5040201;28;46334;-77
2024/01/03 06:55:17;;;;;;;;;5.33;3.00;;;;;-144.62;100.00;60556.56;5041333;28;45245;-77
2024/01/03 06:57:43;;;;;;;;;2.00;1.67;;;;;-144.62;100.00;60556.56;5040221;28;45257;-77
2024/01/03 07:00:09;;;;;;;;;4.00;2.67;;;;;-144.62;100.00;60556.56;5041909;28;45265;-78
2024/01/03 07:02:34;;;;;;;;;4.33;2.00;;;;;-144.62;100.00;60556.56;5040105;28;46614;-78
2024/01/03 07:04:59;;;;;;;;;7.00;3.33;;;;;-144.62;100.00;60556.56;5040865;28;45137;-77
2024/01/03 07:07:25;;;;;;;;;2.00;2.00;;;;;-144.62;100.00;60556.56;5039747;28;45249;-76
2024/01/03 07:09:50;;;;;;;;;4.00;2.67;;;;;-144.62;100.00;60556.56;5042324;27;45474;-78
2024/01/03 07:12:15;;;;;;;;;3.33;2.67;;;;;-144.62;100.00;60556.56;5041507;28;45345;-77
2024/01/03 07:14:41;;;;;;;;;3.33;2.00;;;;;-144.62;100.00;60556.56;5042101;28;51244;-78
2024/01/03 07:17:06;;;;;;;;;2.33;1.00;;;;;-144.62;100.00;60556.56;5041866;28;45178;-76
2024/01/03 07:19:32;;;;;;;;;3.00;1.00;;;;;-144.62;100.00;60556.56;5042397;28;45339;-78
2024/01/03 07:21:57;;;;;;;;;6.33;4.33;;;;;-144.62;100.00;60556.56;5041769;28;46661;-81
2024/01/03 07:24:23;;;;;;;;;1.67;1.00;;;;;-144.62;100.00;60556.56;5045360;28;52116;-82
2024/01/03 07:26:48;;;;;;;;;4.00;4.00;;;;;-144.62;100.00;60556.56;5041955;28;45443;-82
2024/01/03 07:29:14;;;;;;;;;6.00;4.33;;;;;-144.62;100.00;60556.56;5038631;28;45487;-82
2024/01/03 07:31:39;;;;;;;;;6.00;3.00;;;;;-144.62;100.00;60556.56;5039357;28;45495;-81
2024/01/03 07:34:04;;;;;;;;;10.33;4.00;;;;;-144.62;100.00;60556.56;5042043;28;45350;-81
2024/01/03 07:36:30;;;;;;;;;5.33;4.33;;;;;-144.62;100.00;60556.56;5041657;28;45729;-81
2024/01/03 07:38:58;;;;;;;;;10.33;4.33;;;;;-144.62;100.00;60556.56;5042446;28;45435;-81
2024/01/03 07:41:23;;;;;;;;;6.33;4.00;;;;;-144.62;100.00;60556.56;5042003;28;47289;-79
2024/01/03 07:43:49;;;;;;;;;15.67;11.33;;;;;-144.62;100.00;60556.56;5058836;28;45591;-80
2024/01/03 07:46:15;;;;;;;;;11.67;6.00;;;;;-144.62;100.00;60556.56;5042171;28;45343;-83
2024/01/03 07:48:41;;;;;;;;;10.33;5.33;;;;;-144.62;100.00;60556.56;5040981;28;44833;-82
2024/01/03 07:51:06;;;;;;;;;9.33;7.00;;;;;-144.62;100.00;60556.56;5040393;28;47030;-84
2024/01/03 07:53:31;;;;;;;;;15.00;9.00;;;;;-144.62;100.00;60556.56;5036753;28;45320;-78
2024/01/03 07:55:57;;;;;;;;;14.00;7.67;;;;;-144.62;100.00;60556.56;5032355;28;45620;-77
2024/01/03 07:58:22;;;;;;;;;12.33;7.67;;;;;-144.62;100.00;60556.56;5041779;28;45536;-81
2024/01/03 08:00:47;;;;;;;;;8.00;7.00;;;;;-144.62;100.00;60556.56;5041528;28;45351;-77
2024/01/03 08:03:13;;;;;;;;;13.33;5.33;;;;;-144.62;100.00;60556.56;5039852;28;45327;-78
2024/01/03 08:05:38;;;;;;;;;11.00;10.00;;;;;-144.62;100.00;60556.56;5041366;28;45442;-77
2024/01/03 08:08:04;;;;;;;;;14.67;10.00;;;;;-144.62;100.00;60556.56;5041884;27;45434;-78
2024/01/03 08:10:29;;;;;;;;;11.00;9.33;;;;;-144.62;100.00;60556.56;5041012;28;46922;-78
2024/01/03 08:12:54;;;;;;;;;13.33;9.67;;;;;-144.62;100.00;60556.56;5040642;28;45305;-77
2024/01/03 08:15:20;;;;;;;;;8.67;4.33;;;;;-144.62;100.00;60556.56;5039802;28;49634;-77
2024/01/03 08:17:45;;;;;;;;;5.67;3.00;;;;;-144.62;100.00;60556.56;5041359;28;45280;-78
2024/01/03 08:20:11;;;;;;;;;7.00;5.33;;;;;-144.62;100.00;60556.56;5040588;28;45347;-77
2024/01/03 08:22:36;;;;;;;;;11.67;4.00;;;;;-144.62;100.00;60556.56;5040660;28;45391;-77
2024/01/03 08:25:02;;;;;;;;;2.00;2.00;;;;;-144.62;100.00;60556.56;5040575;28;50752;-77
2024/01/03 08:27:27;;;;;;;;;2.00;2.00;;;;;-144.62;100.00;60556.56;5041229;28;45379;-77
2024/01/03 08:29:52;;;;;;;;;3.00;1.67;;;;;-144.62;100.00;60556.56;5038944;28;56790;-77
2024/01/03 08:32:18;;;;;;;;;6.33;2.00;;;;;-144.62;100.00;60556.56;5040391;28;45225;-77
2024/01/03 08:34:46;;;;;;;;;5.33;3.33;;;;;-144.62;100.00;60556.56;5039634;28;45492;-77
2024/01/03 08:37:11;;;;;;;;;4.00;2.67;;;;;-144.62;100.00;60556.56;5041572;28;45694;-77
2024/01/03 08:39:37;;;;;;;;;3.33;3.33;;;;;-144.62;100.00;60556.56;5041097;28;53182;-78
2024/01/03 08:42:02;;;;;;;;;2.00;1.33;;;;;-144.62;100.00;60556.56;5040804;28;45479;-78
2024/01/03 08:44:28;;;;;;;;;2.00;2.00;;;;;-144.62;100.00;60556.56;5039944;28;45466;-77
2024/01/03 08:46:53;;;;;;;;;4.00;4.00;;;;;-144.62;100.00;60556.56;5053152;28;45794;-77
2024/01/03 08:49:19;;;;;;;;;2.00;2.00;;;;;-144.62;100.00;60556.56;5032042;28;45371;-76
2024/01/03 08:51:46;;;;;;;;;6.50;4.00;;;;;-144.62;100.00;60556.56;5040647;28;45641;-77
2024/01/03 08:54:12;;;;;;;;;6.00;3.00;;;;;-144.62;100.00;60556.56;5039671;28;45367;-78
2024/01/03 08:56:39;;;;;;;;;4.33;4.33;;;;;-144.62;100.00;60556.56;5039709;28;45223;-77
2024/01/03 08:59:05;;;;;;;;;3.33;3.00;;;;;-144.62;100.00;60556.56;5040805;28;45516;-76
2024/01/03 09:01:34;;;;;;;;;3.00;3.00;;;;;-144.62;100.00;60556.56;5040377;28;45301;-78
2024/01/03 09:03:59;;;;;;;;;6.67;3.67;;;;;-144.62;100.00;60556.56;5040999;28;45312;-77
2024/01/03 09:06:25;;;;;;;;;6.00;4.67;;;;;-144.62;100.00;60556.56;5039876;28;45237;-77
2024/01/03 09:08:51;;;;;;;;;6.00;5.67;;;;;-144.62;100.00;60556.56;5040268;27;46351;-78
2024/01/03 09:11:22;;;;;;;;;7.00;4.00;;;;;-144.62;100.00;60556.56;5038865;28;45433;-77
2024/01/03 09:13:49;;;;;;;;;9.33;5.67;;;;;-144.62;100.00;60556.56;5040200;28;45322;-77
2024/01/03 09:16:17;;;;;;;;;4.33;4.33;;;;;-144.62;100.00;60556.56;5039622;28;45433;-77
2024/01/03 09:18:43;;;;;;;;;6.33;3.00;;;;;-144.62;100.00;60556.56;5040358;28;46372;-78
2024/01/03 09:21:09;;;;;;;;;8.33;5.67;;;;;-144.62;100.00;60556.56;5026914;28;45211;-77
2024/01/03 09:23:34;;;;;;;;;6.00;3.00;;;;;-144.62;100.00;60556.56;5040084;28;45486;-79
2024/01/03 09:26:03;;;;;;;;;4.67;3.67;;;;;-144.62;100.00;60556.56;5038998;28;45236;-79
2024/01/03 09:28:29;;;;;;;;;3.67;2.67;;;;;-144.62;100.00;60556.56;5038680;28;46617;-78
2024/01/03 09:30:54;;;;;;;;;5.33;4.00;;;;;-144.62;100.00;60556.56;5034261;28;45415;-77
2024/01/03 09:33:20;;;;;;;;;11.67;4.67;;;;;-144.62;100.00;60556.56;5031991;28;49843;-78
2024/01/03 09:35:45;;;;;;;;;6.00;5.33;;;;;-144.62;100.00;60556.56;5040672;28;45312;-77
2024/01/03 09:38:12;;;;;;;;;7.33;5.00;;;;;-144.62;100.00;60556.56;5038655;28;46868;-77
2024/01/03 09:40:37;;;;;;;;;9.67;6.00;;;;;-144.62;100.00;60556.56;5039732;28;45256;-79
2024/01/03 09:43:03;;;;;;;;;0.00;0.00;;;;;-144.62;100.00;60556.56;5039028;28;45379;-78
2024/01/03 09:45:30;;;;;;;;;5.33;5.00;;;;;-144.62;100.00;60556.56;5040409;28;45248;-77
2024/01/03 09:47:56;;;;;;;;;9.67;6.67;;;;;-144.62;100.00;60556.56;5040113;28;45644;-77
2024/01/03 09:50:21;;;;;;;;;6.00;4.67;;;;;-144.62;100.00;60556.56;5039730;28;45313;-77
2024/01/03 09:52:48;;;;;;;;;6.67;3.67;;;;;-144.62;100.00;60556.56;5039850;28;45329;-77
2024/01/03 09:55:14;;;;;;;;;6.00;4.00;;;;;-144.62;100.00;60556.56;5038909;28;45370;-80
2024/01/03 09:57:41;;;;;;;;;6.33;4.00;;;;;-144.62;100.00;60556.56;5039859;28;46264;-77
2024/01/03 10:00:08;;;;;;;;;10.67;3.33;;;;;-144.62;100.00;60556.56;5038659;28;45376;-77
2024/01/03 10:02:36;;;;;;;;;8.67;3.00;;;;;-144.62;100.00;60556.56;5055638;28;45331;-77
2024/01/03 10:05:02;;;;;;;;;4.67;4.33;;;;;-144.62;100.00;60556.56;5040131;28;45319;-77
2024/01/03 10:07:35;;;;;;;;;8.00;4.33;;;;;-144.62;100.00;60556.56;5039636;28;46597;-77
2024/01/03 10:10:01;;;;;;;;;6.00;6.00;;;;;-144.62;100.00;60556.56;5027138;28;45486;-77
2024/01/03 10:12:32;;;;;;;;;5.00;4.67;;;;;-144.62;100.00;60556.56;5039448;27;45268;-78
2024/01/03 10:15:15;;;;;;;;;7.33;4.33;;;;;-144.62;100.00;60556.56;5038479;28;45506;-77
2024/01/03 10:17:43;;;;;;;;;9.33;3.67;;;;;-144.62;100.00;60556.56;5040517;28;45986;-77
2024/01/03 10:20:29;;;;;;;;;11.00;4.00;;;;;-144.62;100.00;60556.56;5042878;28;45275;-77
2024/01/03 10:23:03;;;;;;;;;6.00;3.00;;;;;-144.62;100.00;60556.56;5042848;28;45360;-78
2024/01/03 10:25:29;;;;;;;;;7.33;4.67;;;;;-144.62;100.00;60556.56;5053241;28;45493;-77
2024/01/03 10:28:06;;;;;;;;;9.00;4.67;;;;;-144.62;100.00;60556.56;5042638;28;45533;-78
2024/01/03 10:30:32;;;;;;;;;4.67;4.67;;;;;-144.62;100.00;60556.56;5036540;28;45473;-78
2024/01/03 10:33:07;;;;;;;;;5.67;2.00;;;;;-144.62;100.00;60556.56;5042685;28;45465;-78
2024/01/03 10:35:35;;;;;;;;;6.00;3.67;;;;;-144.62;100.00;60556.56;5042754;28;45492;-76
2024/01/03 10:38:01;;;;;;;;;9.33;5.00;;;;;-144.62;100.00;60556.56;5040925;28;48106;-77
2024/01/03 10:40:29;;;;;;;;;5.67;2.67;;;;;-144.62;100.00;60556.56;5040746;28;45355;-77
2024/01/03 10:42:55;;;;;;;;;4.67;4.00;;;;;-144.62;100.00;60556.56;5042376;28;45409;-77
2024/01/03 10:45:21;;;;;;;;;7.33;4.00;;;;;-144.62;100.00;60556.56;5042949;28;45459;-78
2024/01/03 10:47:47;;;;;;;;;5.33;3.00;;;;;-144.62;100.00;60556.56;5041090;28;47205;-77
2024/01/03 10:50:13;;;;;;;;;5.67;4.00;;;;;-144.62;100.00;60556.56;5043843;28;45394;-77
2024/01/03 10:52:42;;;;;;;;;4.00;4.00;;;;;-144.62;100.00;60556.56;5056546;28;45273;-79
2024/01/03 10:55:10;;;;;;;;;7.67;5.33;;;;;-144.62;100.00;60556.56;5029263;28;45440;-77
2024/01/03 10:57:36;;;;;;;;;7.67;4.00;;;;;-144.62;100.00;60556.56;5035749;28;45380;-76
2024/01/03 11:00:17;;;;;;;;;5.67;4.00;;;;;-144.62;100.00;60556.56;5043915;28;45239;-79
2024/01/03 11:02:53;;;;;;;;;16.67;8.33;;;;;-144.62;100.00;60556.56;5042407;28;45227;-79
2024/01/03 11:05:26;;;;;;;;;6.00;3.67;;;;;-144.62;100.00;60556.56;5040935;28;45557;-78